createdAt,value
2018-09-08T00:00:15.222Z,100858.00
2018-09-08T00:02:44.450Z,100875.00
2018-09-08T00:05:13.702Z,100855.00
2018-09-08T00:07:43.068Z,100859.00
2018-09-08T00:10:12.440Z,100863.00
2018-09-08T00:12:42.080Z,100871.00
2018-09-08T00:15:16.652Z,100864.00
2018-09-08T00:17:51.095Z,100876.00
2018-09-08T00:20:25.643Z,100871.00
2018-09-08T00:23:00.093Z,100870.00
2018-09-08T00:25:34.626Z,100866.00
2018-09-08T00:28:17.967Z,100869.00
2018-09-08T00:30:47.203Z,100874.00
2018-09-08T00:33:16.430Z,100877.00
2018-09-08T00:35:46.051Z,100869.00
2018-09-08T00:38:15.251Z,100865.00
2018-09-08T00:40:44.582Z,100866.00
2018-09-08T00:43:13.931Z,100867.00
2018-09-08T00:45:43.271Z,100875.00
2018-09-08T00:48:12.512Z,100869.00
2018-09-08T00:50:41.883Z,100871.00
2018-09-08T00:53:11.221Z,100864.00
2018-09-08T00:55:40.461Z,100868.00
2018-09-08T00:58:09.781Z,100880.00
2018-09-08T01:00:39.094Z,100884.00
2018-09-08T01:03:08.419Z,100874.00
2018-09-08T01:05:37.759Z,100880.00
2018-09-08T01:08:07.047Z,100892.00
2018-09-08T01:10:36.343Z,100877.00
2018-09-08T01:13:05.675Z,100873.00
2018-09-08T01:15:34.952Z,100879.00
2018-09-08T01:18:04.332Z,100874.00
2018-09-08T01:20:33.601Z,100876.00
2018-09-08T01:23:02.921Z,100880.00
2018-09-08T01:25:33.216Z,100877.00
2018-09-08T01:28:02.618Z,100874.00
2018-09-08T01:30:31.929Z,100877.00
2018-09-08T01:33:01.280Z,100873.00
2018-09-08T01:35:30.559Z,100867.00
2018-09-08T01:38:00.002Z,100876.00
2018-09-08T01:40:29.337Z,100877.00
2018-09-08T01:42:58.666Z,100876.00
2018-09-08T01:45:27.975Z,100868.00
2018-09-08T01:47:57.325Z,100870.00
2018-09-08T01:50:26.673Z,100882.00
2018-09-08T01:52:56.148Z,100887.00
2018-09-08T01:55:25.453Z,100888.00
2018-09-08T01:57:54.771Z,100887.00
2018-09-08T02:00:24.155Z,100891.00
2018-09-08T02:02:53.487Z,100894.00
2018-09-08T02:05:22.919Z,100888.00
2018-09-08T02:07:52.315Z,100890.00
2018-09-08T02:10:21.571Z,100896.00
2018-09-08T02:12:50.847Z,100894.00
2018-09-08T02:15:20.104Z,100901.00
2018-09-08T02:17:49.360Z,100897.00
2018-09-08T02:20:18.599Z,100898.00
2018-09-08T02:22:47.895Z,100894.00
2018-09-08T02:25:17.267Z,100892.00
2018-09-08T02:27:46.495Z,100888.00
2018-09-08T02:30:15.812Z,100905.00
2018-09-08T02:32:45.105Z,100902.00
2018-09-08T02:35:14.464Z,100894.00
2018-09-08T02:37:43.815Z,100898.00
2018-09-08T02:40:13.132Z,100893.00
2018-09-08T02:42:42.422Z,100895.00
2018-09-08T02:45:11.689Z,100890.00
2018-09-08T02:47:41.032Z,100891.00
2018-09-08T02:50:35.611Z,100893.00
2018-09-08T02:53:03.783Z,100896.00
2018-09-08T02:55:34.049Z,100902.00
2018-09-08T02:58:01.861Z,100893.00
2018-09-08T03:00:31.003Z,100904.00
2018-09-08T03:02:58.650Z,100905.00
2018-09-08T03:05:26.296Z,100909.00
2018-09-08T03:07:53.926Z,100909.00
2018-09-08T03:10:22.121Z,100909.00
2018-09-08T03:12:49.899Z,100903.00
2018-09-08T03:15:17.579Z,100909.00
2018-09-08T03:17:45.231Z,100907.00
2018-09-08T03:20:12.874Z,100912.00
2018-09-08T03:22:40.512Z,100911.00
2018-09-08T03:25:08.195Z,100920.00
2018-09-08T03:27:35.871Z,100917.00
2018-09-08T03:30:03.536Z,100922.00
2018-09-08T03:32:31.166Z,100920.00
2018-09-08T03:34:58.854Z,100921.00
2018-09-08T03:37:26.496Z,100920.00
2018-09-08T03:39:54.151Z,100921.00
2018-09-08T03:42:21.824Z,100922.00
2018-09-08T03:44:49.483Z,100931.00
2018-09-08T03:47:17.139Z,100925.00
2018-09-08T03:49:44.806Z,100934.00
2018-09-08T03:52:12.455Z,100934.00
2018-09-08T03:54:40.133Z,100937.00
2018-09-08T03:57:08.747Z,100929.00
2018-09-08T03:59:36.396Z,100940.00
2018-09-08T04:02:04.040Z,100939.00
2018-09-08T04:04:33.304Z,100942.00
2018-09-08T04:07:02.654Z,100932.00
2018-09-08T04:09:31.899Z,100942.00
2018-09-08T04:12:01.139Z,100939.00
2018-09-08T04:14:30.399Z,100937.00
2018-09-08T04:16:59.942Z,100941.00
2018-09-08T04:19:29.396Z,100941.00
2018-09-08T04:21:58.723Z,100957.00
2018-09-08T04:24:27.983Z,100955.00
2018-09-08T04:26:57.270Z,100951.00
2018-09-08T04:29:26.785Z,100960.00
2018-09-08T04:31:56.075Z,100961.00
2018-09-08T04:34:25.311Z,100957.00
2018-09-08T04:36:56.744Z,100964.00
2018-09-08T04:39:26.074Z,100972.00
2018-09-08T04:41:55.439Z,100967.00
2018-09-08T04:44:24.854Z,100967.00
2018-09-08T04:46:54.118Z,100972.00
2018-09-08T04:49:23.385Z,100985.00
2018-09-08T04:51:52.688Z,100985.00
2018-09-08T04:54:22.059Z,100983.00
2018-09-08T04:56:51.306Z,100989.00
2018-09-08T04:59:20.598Z,100985.00
2018-09-08T05:01:49.955Z,100976.00
2018-09-08T05:04:19.226Z,100977.00
2018-09-08T05:06:48.512Z,100989.00
2018-09-08T05:09:17.787Z,100979.00
2018-09-08T05:11:47.080Z,100983.00
2018-09-08T05:14:16.374Z,100989.00
2018-09-08T05:16:45.611Z,100982.00
2018-09-08T05:19:14.926Z,100984.00
2018-09-08T05:21:44.227Z,100987.00
2018-09-08T05:24:30.038Z,100988.00
2018-09-08T05:26:59.309Z,100991.00
2018-09-08T05:29:28.673Z,100988.00
2018-09-08T05:31:58.169Z,100993.00
2018-09-08T05:34:27.550Z,101002.00
2018-09-08T05:36:56.821Z,100999.00
2018-09-08T05:39:26.143Z,101003.00
2018-09-08T05:41:55.436Z,101001.00
2018-09-08T05:44:24.902Z,101009.00
2018-09-08T05:46:54.138Z,101019.00
2018-09-08T05:49:23.404Z,101004.00
2018-09-08T05:51:52.766Z,101014.00
2018-09-08T05:54:22.066Z,101023.00
2018-09-08T05:56:51.391Z,101014.00
2018-09-08T05:59:20.707Z,101021.00
2018-09-08T06:01:50.070Z,101011.00
2018-09-08T06:04:19.403Z,101019.00
2018-09-08T06:06:48.734Z,101011.00
2018-09-08T06:09:18.073Z,101017.00
2018-09-08T06:11:47.408Z,101021.00
2018-09-08T06:14:16.706Z,101028.00
2018-09-08T06:16:46.015Z,101032.00
2018-09-08T06:19:15.236Z,101033.00
2018-09-08T06:21:44.616Z,101041.00
2018-09-08T06:24:13.860Z,101043.00
2018-09-08T06:26:43.163Z,101048.00
2018-09-08T06:29:12.623Z,101045.00
2018-09-08T06:31:41.971Z,101048.00
2018-09-08T06:34:11.200Z,101049.00
2018-09-08T06:36:40.504Z,101054.00
2018-09-08T06:39:12.033Z,101052.00
2018-09-08T06:41:41.440Z,101050.00
2018-09-08T06:44:10.686Z,101057.00
2018-09-08T06:46:40.075Z,101066.00
2018-09-08T06:49:09.394Z,101069.00
2018-09-08T06:51:38.624Z,101060.00
2018-09-08T06:54:07.864Z,101058.00
2018-09-08T06:56:37.161Z,101067.00
2018-09-08T06:59:06.443Z,101063.00
2018-09-08T07:01:35.771Z,101069.00
2018-09-08T07:04:05.168Z,101071.00
2018-09-08T07:06:37.554Z,101069.00
2018-09-08T07:09:09.893Z,101073.00
2018-09-08T07:11:40.241Z,101070.00
2018-09-08T07:14:09.539Z,101066.00
2018-09-08T07:16:38.888Z,101071.00
2018-09-08T07:19:08.170Z,101082.00
2018-09-08T07:21:37.490Z,101076.00
2018-09-08T07:24:06.768Z,101079.00
2018-09-08T07:26:36.116Z,101074.00
2018-09-08T07:29:05.409Z,101075.00
2018-09-08T07:31:34.787Z,101073.00
2018-09-08T07:34:04.142Z,101074.00
2018-09-08T07:36:33.460Z,101075.00
2018-09-08T07:39:02.872Z,101080.00
2018-09-08T07:41:32.398Z,101082.00
2018-09-08T07:44:01.697Z,101080.00
2018-09-08T07:46:30.967Z,101076.00
2018-09-08T07:49:00.298Z,101068.00
2018-09-08T07:51:29.671Z,101069.00
2018-09-08T07:54:10.943Z,101071.00
2018-09-08T07:56:40.295Z,101078.00
2018-09-08T07:59:09.580Z,101081.00
2018-09-08T08:01:38.902Z,101072.00
2018-09-08T08:04:08.271Z,101084.00
2018-09-08T08:06:37.548Z,101089.00
2018-09-08T08:09:08.612Z,101093.00
2018-09-08T08:11:37.950Z,101096.00
2018-09-08T08:14:09.260Z,101088.00
2018-09-08T08:16:38.660Z,101082.00
2018-09-08T08:19:07.987Z,101086.00
2018-09-08T08:21:37.326Z,101083.00
2018-09-08T08:24:06.619Z,101085.00
2018-09-08T08:26:35.999Z,101082.00
2018-09-08T08:29:05.615Z,101088.00
2018-09-08T08:31:34.862Z,101088.00
2018-09-08T08:34:04.233Z,101086.00
2018-09-08T08:36:33.591Z,101103.00
2018-09-08T08:39:02.870Z,101084.00
2018-09-08T08:41:32.157Z,101099.00
2018-09-08T08:44:01.454Z,101101.00
2018-09-08T08:46:30.906Z,101094.00
2018-09-08T08:49:00.236Z,101090.00
2018-09-08T08:51:46.645Z,101104.00
2018-09-08T08:54:22.402Z,101096.00
2018-09-08T08:56:51.730Z,101106.00
2018-09-08T08:59:21.113Z,101103.00
2018-09-08T09:01:53.468Z,101099.00
2018-09-08T09:04:23.027Z,101103.00
2018-09-08T09:06:52.310Z,101102.00
2018-09-08T09:09:25.651Z,101102.00
2018-09-08T09:11:55.680Z,101103.00
2018-09-08T09:14:24.682Z,101105.00
2018-09-08T09:16:53.992Z,101105.00
2018-09-08T09:19:41.375Z,101112.00
2018-09-08T09:22:28.679Z,101105.00
2018-09-08T09:25:03.470Z,101115.00
2018-09-08T09:27:44.211Z,101105.00
2018-09-08T09:30:14.595Z,101101.00
2018-09-08T09:32:43.843Z,101107.00
2018-09-08T09:35:14.610Z,101106.00
2018-09-08T09:37:43.940Z,101116.00
2018-09-08T09:40:14.127Z,101126.00
2018-09-08T09:42:43.515Z,101126.00
2018-09-08T09:45:12.789Z,101139.00
2018-09-08T09:47:42.127Z,101141.00
2018-09-08T09:50:12.376Z,101134.00
2018-09-08T09:52:42.128Z,101132.00
2018-09-08T09:55:11.443Z,101132.00
2018-09-08T09:57:40.710Z,101128.00
2018-09-08T10:00:14.444Z,101119.00
2018-09-08T10:02:49.883Z,101130.00
2018-09-08T10:05:23.303Z,101121.00
2018-09-08T10:07:53.306Z,101120.00
2018-09-08T10:10:25.023Z,101117.00
2018-09-08T10:12:54.309Z,101119.00
2018-09-08T10:15:23.599Z,101104.00
2018-09-08T10:17:52.950Z,101106.00
2018-09-08T10:20:23.211Z,101114.00
2018-09-08T10:22:52.471Z,101120.00
2018-09-08T10:25:21.901Z,101122.00
2018-09-08T10:27:51.194Z,101118.00
2018-09-08T10:30:20.584Z,101119.00
2018-09-08T10:32:49.953Z,101121.00
2018-09-08T10:35:19.283Z,101117.00
2018-09-08T10:37:48.610Z,101124.00
2018-09-08T10:40:17.970Z,101126.00
2018-09-08T10:42:47.526Z,101122.00
2018-09-08T10:45:16.815Z,101125.00
2018-09-08T10:47:46.055Z,101118.00
2018-09-08T10:50:15.341Z,101128.00
2018-09-08T10:52:46.222Z,101126.00
2018-09-08T10:55:15.511Z,101134.00
2018-09-08T10:57:44.824Z,101119.00
2018-09-08T11:00:16.388Z,101125.00
2018-09-08T11:02:45.945Z,101126.00
2018-09-08T11:05:14.821Z,101131.00
2018-09-08T11:07:44.063Z,101125.00
2018-09-08T11:10:13.271Z,101132.00
2018-09-08T11:12:42.543Z,101129.00
2018-09-08T11:15:12.032Z,101126.00
2018-09-08T11:17:41.302Z,101119.00
2018-09-08T11:20:10.522Z,101128.00
2018-09-08T11:22:39.780Z,101132.00
2018-09-08T11:25:09.145Z,101125.00
2018-09-08T11:27:38.415Z,101134.00
2018-09-08T11:30:08.334Z,101131.00
2018-09-08T11:32:37.640Z,101131.00
2018-09-08T11:35:07.095Z,101138.00
2018-09-08T11:37:36.461Z,101118.00
2018-09-08T11:40:05.943Z,101130.00
2018-09-08T11:42:35.227Z,101143.00
2018-09-08T11:45:04.694Z,101137.00
2018-09-08T11:47:33.940Z,101129.00
2018-09-08T11:50:03.214Z,101139.00
2018-09-08T11:52:32.438Z,101135.00
2018-09-08T11:55:01.780Z,101139.00
2018-09-08T11:57:31.111Z,101144.00
2018-09-08T12:00:00.432Z,101150.00
2018-09-08T12:02:29.683Z,101136.00
2018-09-08T12:04:58.939Z,101137.00
2018-09-08T12:07:28.215Z,101133.00
2018-09-08T12:09:57.567Z,101135.00
2018-09-08T12:12:26.843Z,101130.00
2018-09-08T12:14:56.141Z,101137.00
2018-09-08T12:17:25.411Z,101133.00
2018-09-08T12:19:54.682Z,101124.00
2018-09-08T12:22:23.910Z,101128.00
2018-09-08T12:24:53.206Z,101124.00
2018-09-08T12:27:22.448Z,101140.00
2018-09-08T12:29:51.712Z,101132.00
2018-09-08T12:32:21.088Z,101120.00
2018-09-08T12:34:50.680Z,101128.00
2018-09-08T12:37:19.923Z,101126.00
2018-09-08T12:39:49.266Z,101127.00
2018-09-08T12:42:18.951Z,101127.00
2018-09-08T12:44:48.199Z,101130.00
2018-09-08T12:47:17.419Z,101137.00
2018-09-08T12:49:46.707Z,101129.00
2018-09-08T12:52:15.996Z,101119.00
2018-09-08T12:54:45.643Z,101123.00
2018-09-08T12:57:14.970Z,101114.00
2018-09-08T12:59:44.206Z,101117.00
2018-09-08T13:02:13.532Z,101115.00
2018-09-08T13:04:42.803Z,101102.00
2018-09-08T13:07:12.071Z,101110.00
2018-09-08T13:09:41.419Z,101106.00
2018-09-08T13:12:10.840Z,101122.00
2018-09-08T13:14:40.140Z,101112.00
2018-09-08T13:17:09.426Z,101109.00
2018-09-08T13:19:38.806Z,101105.00
2018-09-08T13:22:08.183Z,101103.00
2018-09-08T13:24:37.460Z,101099.00
2018-09-08T13:27:06.715Z,101095.00
2018-09-08T13:29:35.987Z,101102.00
2018-09-08T13:32:05.251Z,101093.00
2018-09-08T13:34:34.515Z,101089.00
2018-09-08T13:37:03.845Z,101088.00
2018-09-08T13:39:33.118Z,101087.00
2018-09-08T13:42:02.294Z,101092.00
2018-09-08T13:44:31.609Z,101088.00
2018-09-08T13:47:00.933Z,101095.00
2018-09-08T13:49:30.557Z,101087.00
2018-09-08T13:51:59.854Z,101087.00
2018-09-08T13:54:29.119Z,101082.00
2018-09-08T13:56:58.780Z,101093.00
2018-09-08T13:59:28.023Z,101102.00
2018-09-08T14:01:57.295Z,101094.00
2018-09-08T14:04:26.680Z,101099.00
2018-09-08T14:06:56.081Z,101094.00
2018-09-08T14:09:25.370Z,101094.00
2018-09-08T14:11:54.641Z,101102.00
2018-09-08T14:14:23.949Z,101096.00
2018-09-08T14:16:53.238Z,101090.00
2018-09-08T14:19:22.605Z,101083.00
2018-09-08T14:21:51.927Z,101084.00
2018-09-08T14:24:21.285Z,101085.00
2018-09-08T14:26:50.702Z,101080.00
2018-09-08T14:29:20.003Z,101076.00
2018-09-08T14:31:49.260Z,101072.00
2018-09-08T14:34:18.612Z,101083.00
2018-09-08T14:36:47.969Z,101074.00
2018-09-08T14:39:17.333Z,101092.00
2018-09-08T14:41:49.768Z,101084.00
2018-09-08T14:44:19.023Z,101081.00
2018-09-08T14:46:48.291Z,101080.00
2018-09-08T14:49:17.554Z,101085.00
2018-09-08T14:51:46.789Z,101089.00
2018-09-08T14:54:16.064Z,101090.00
2018-09-08T14:56:45.726Z,101089.00
2018-09-08T14:59:15.028Z,101089.00
2018-09-08T15:01:44.355Z,101099.00
2018-09-08T15:04:13.682Z,101090.00
2018-09-08T15:06:42.948Z,101095.00
2018-09-08T15:09:12.283Z,101092.00
2018-09-08T15:11:41.592Z,101106.00
2018-09-08T15:14:11.024Z,101101.00
2018-09-08T15:16:40.315Z,101102.00
2018-09-08T15:19:09.625Z,101100.00
2018-09-08T15:21:38.877Z,101106.00
2018-09-08T15:24:08.256Z,101096.00
2018-09-08T15:26:37.681Z,101089.00
2018-09-08T15:29:06.892Z,101095.00
2018-09-08T15:31:36.164Z,101102.00
2018-09-08T15:34:05.490Z,101094.00
2018-09-08T15:36:34.957Z,101096.00
2018-09-08T15:39:05.815Z,101100.00
2018-09-08T15:41:35.263Z,101100.00
2018-09-08T15:44:04.573Z,101093.00
2018-09-08T15:46:33.886Z,101093.00
2018-09-08T15:49:03.133Z,101091.00
2018-09-08T15:51:32.447Z,101086.00
2018-09-08T15:54:01.749Z,101103.00
2018-09-08T15:56:31.039Z,101100.00
2018-09-08T15:59:00.342Z,101102.00
2018-09-08T16:01:29.578Z,101090.00
2018-09-08T16:03:59.194Z,101090.00
2018-09-08T16:06:28.510Z,101080.00
2018-09-08T16:08:58.827Z,101082.00
2018-09-08T16:11:28.076Z,101082.00
2018-09-08T16:13:57.335Z,101081.00
2018-09-08T16:16:26.619Z,101091.00
2018-09-08T16:18:55.949Z,101088.00
2018-09-08T16:21:25.389Z,101084.00
2018-09-08T16:23:54.702Z,101090.00
2018-09-08T16:26:24.016Z,101081.00
2018-09-08T16:28:53.367Z,101085.00
2018-09-08T16:31:22.687Z,101088.00
2018-09-08T16:33:52.016Z,101084.00
2018-09-08T16:36:21.318Z,101094.00
2018-09-08T16:38:50.670Z,101091.00
2018-09-08T16:41:19.884Z,101100.00
2018-09-08T16:43:49.147Z,101100.00
2018-09-08T16:46:19.671Z,101102.00
2018-09-08T16:48:48.987Z,101107.00
2018-09-08T16:51:18.284Z,101108.00
2018-09-08T16:53:47.521Z,101102.00
2018-09-08T16:56:16.812Z,101107.00
2018-09-08T16:58:46.146Z,101095.00
2018-09-08T17:01:15.400Z,101103.00
2018-09-08T17:03:44.708Z,101106.00
2018-09-08T17:06:14.024Z,101112.00
2018-09-08T17:08:43.288Z,101119.00
2018-09-08T17:11:12.520Z,101121.00
2018-09-08T17:13:42.051Z,101121.00
2018-09-08T17:16:11.326Z,101115.00
2018-09-08T17:18:40.640Z,101117.00
2018-09-08T17:21:09.951Z,101116.00
2018-09-08T17:23:39.240Z,101115.00
2018-09-08T17:26:08.695Z,101110.00
2018-09-08T17:28:38.007Z,101106.00
2018-09-08T17:31:07.399Z,101106.00
2018-09-08T17:33:36.709Z,101106.00
2018-09-08T17:36:06.142Z,101114.00
2018-09-08T17:38:35.486Z,101104.00
2018-09-08T17:41:04.746Z,101102.00
2018-09-08T17:43:34.031Z,101113.00
2018-09-08T17:46:03.294Z,101110.00
2018-09-08T17:48:32.553Z,101105.00
2018-09-08T17:51:01.850Z,101107.00
2018-09-08T17:53:31.098Z,101109.00
2018-09-08T17:56:00.434Z,101107.00
2018-09-08T17:58:29.903Z,101107.00
2018-09-08T18:00:59.414Z,101113.00
2018-09-08T18:03:28.740Z,101108.00
2018-09-08T18:05:58.020Z,101105.00
2018-09-08T18:08:27.736Z,101112.00
2018-09-08T18:10:57.038Z,101110.00
2018-09-08T18:13:26.500Z,101109.00
2018-09-08T18:15:55.918Z,101110.00
2018-09-08T18:18:25.541Z,101113.00
2018-09-08T18:20:54.859Z,101103.00
2018-09-08T18:23:24.198Z,101111.00
2018-09-08T18:25:53.462Z,101119.00
2018-09-08T18:28:22.754Z,101127.00
2018-09-08T18:30:52.399Z,101121.00
2018-09-08T18:33:21.700Z,101117.00
2018-09-08T18:35:53.455Z,101121.00
2018-09-08T18:38:23.341Z,101135.00
2018-09-08T18:40:52.806Z,101134.00
2018-09-08T18:43:23.159Z,101124.00
2018-09-08T18:45:52.405Z,101131.00
2018-09-08T18:48:21.692Z,101120.00
2018-09-08T18:50:51.068Z,101120.00
2018-09-08T18:53:20.460Z,101122.00
2018-09-08T18:55:49.779Z,101124.00
2018-09-08T18:58:18.990Z,101134.00
2018-09-08T19:00:48.278Z,101142.00
2018-09-08T19:03:17.592Z,101142.00
2018-09-08T19:05:46.832Z,101143.00
2018-09-08T19:08:16.064Z,101149.00
2018-09-08T19:10:45.380Z,101140.00
2018-09-08T19:13:14.675Z,101148.00
2018-09-08T19:15:44.019Z,101150.00
2018-09-08T19:18:16.483Z,101144.00
2018-09-08T19:20:46.127Z,101132.00
2018-09-08T19:23:15.428Z,101134.00
2018-09-08T19:25:44.820Z,101132.00
2018-09-08T19:28:14.120Z,101128.00
2018-09-08T19:30:43.363Z,101122.00
2018-09-08T19:33:13.003Z,101128.00
2018-09-08T19:35:42.290Z,101129.00
2018-09-08T19:38:11.533Z,101137.00
2018-09-08T19:40:47.918Z,101150.00
2018-09-08T19:43:17.208Z,101147.00
2018-09-08T19:45:46.445Z,101130.00
2018-09-08T19:48:20.191Z,101132.00
2018-09-08T19:50:49.515Z,101134.00
2018-09-08T19:53:24.151Z,101136.00
2018-09-08T19:55:53.468Z,101125.00
2018-09-08T19:58:28.088Z,101125.00
2018-09-08T20:00:57.359Z,101120.00
2018-09-08T20:03:26.723Z,101125.00
2018-09-08T20:05:56.058Z,101133.00
2018-09-08T20:08:25.467Z,101125.00
2018-09-08T20:10:54.840Z,101127.00
2018-09-08T20:13:24.218Z,101134.00
2018-09-08T20:15:53.588Z,101132.00
2018-09-08T20:18:22.800Z,101135.00
2018-09-08T20:20:52.091Z,101131.00
2018-09-08T20:23:21.408Z,101136.00
2018-09-08T20:25:50.715Z,101144.00
2018-09-08T20:28:20.006Z,101145.00
2018-09-08T20:30:49.239Z,101135.00
2018-09-08T20:33:18.536Z,101137.00
2018-09-08T20:35:47.751Z,101136.00
2018-09-08T20:38:17.028Z,101136.00
2018-09-08T20:40:46.294Z,101135.00
2018-09-08T20:43:15.495Z,101135.00
2018-09-08T20:45:44.790Z,101135.00
2018-09-08T20:48:15.554Z,101135.00
2018-09-08T20:50:44.859Z,101142.00
2018-09-08T20:53:14.180Z,101144.00
2018-09-08T20:55:43.521Z,101137.00
2018-09-08T20:58:12.759Z,101147.00
2018-09-08T21:00:42.075Z,101145.00
2018-09-08T21:03:11.351Z,101144.00
2018-09-08T21:05:40.598Z,101142.00
2018-09-08T21:08:09.867Z,101142.00
2018-09-08T21:10:39.139Z,101144.00
2018-09-08T21:13:08.513Z,101139.00
2018-09-08T21:15:37.833Z,101144.00
2018-09-08T21:18:07.182Z,101137.00
2018-09-08T21:20:36.488Z,101141.00
2018-09-08T21:23:05.979Z,101144.00
2018-09-08T21:25:35.218Z,101139.00
2018-09-08T21:28:04.872Z,101144.00
2018-09-08T21:30:34.164Z,101158.00
2018-09-08T21:33:03.451Z,101151.00
2018-09-08T21:35:32.678Z,101153.00
2018-09-08T21:38:01.946Z,101149.00
2018-09-08T21:40:31.159Z,101149.00
2018-09-08T21:43:00.387Z,101138.00
2018-09-08T21:45:29.646Z,101144.00
2018-09-08T21:47:58.877Z,101148.00
2018-09-08T21:50:28.127Z,101141.00
2018-09-08T21:52:57.359Z,101136.00
2018-09-08T21:55:26.626Z,101145.00
2018-09-08T21:57:55.874Z,101150.00
2018-09-08T22:00:25.094Z,101156.00
2018-09-08T22:02:54.351Z,101151.00
2018-09-08T22:05:23.634Z,101160.00
2018-09-08T22:07:52.904Z,101150.00
2018-09-08T22:10:22.185Z,101159.00
2018-09-08T22:12:51.446Z,101156.00
2018-09-08T22:15:20.776Z,101156.00
2018-09-08T22:17:50.019Z,101157.00
2018-09-08T22:20:19.344Z,101155.00
2018-09-08T22:22:48.699Z,101153.00
2018-09-08T22:25:18.021Z,101152.00
2018-09-08T22:27:47.204Z,101143.00
2018-09-08T22:30:16.492Z,101143.00
2018-09-08T22:32:45.790Z,101145.00
2018-09-08T22:35:15.112Z,101143.00
2018-09-08T22:37:44.432Z,101142.00
2018-09-08T22:40:13.703Z,101135.00
2018-09-08T22:42:42.998Z,101142.00
2018-09-08T22:45:12.231Z,101144.00
2018-09-08T22:47:41.507Z,101147.00
2018-09-08T22:50:10.763Z,101151.00
2018-09-08T22:52:40.012Z,101141.00
2018-09-08T22:55:09.215Z,101150.00
2018-09-08T22:57:38.465Z,101151.00
2018-09-08T23:00:07.699Z,101145.00
2018-09-08T23:02:36.931Z,101132.00
2018-09-08T23:05:06.359Z,101141.00
2018-09-08T23:07:35.635Z,101148.00
2018-09-08T23:10:04.910Z,101141.00
2018-09-08T23:12:34.223Z,101148.00
2018-09-08T23:15:03.550Z,101145.00
2018-09-08T23:17:32.758Z,101152.00
2018-09-08T23:20:02.065Z,101156.00
2018-09-08T23:22:31.358Z,101159.00
2018-09-08T23:25:00.700Z,101155.00
2018-09-08T23:27:30.016Z,101149.00
2018-09-08T23:29:59.311Z,101147.00
2018-09-08T23:32:28.592Z,101154.00
2018-09-08T23:34:57.897Z,101146.00
2018-09-08T23:37:27.153Z,101151.00
2018-09-08T23:39:56.561Z,101155.00
2018-09-08T23:42:26.013Z,101146.00
2018-09-08T23:44:55.326Z,101151.00
2018-09-08T23:47:24.571Z,101160.00
2018-09-08T23:49:54.031Z,101146.00
2018-09-08T23:52:24.319Z,101151.00
2018-09-08T23:54:53.581Z,101155.00
2018-09-08T23:57:22.767Z,101155.00
2018-09-08T23:59:52.030Z,101156.00
